createdAt,value
2023-02-13T00:02:18.981Z,123.77
2023-02-13T00:04:47.522Z,154.80
2023-02-13T00:07:17.417Z,172.97
2023-02-13T00:09:45.846Z,355.07
2023-02-13T00:12:14.281Z,144.73
2023-02-13T00:14:42.973Z,111.80
2023-02-13T00:17:11.351Z,169.63
2023-02-13T00:19:39.988Z,124.77
2023-02-13T00:22:08.569Z,176.80
2023-02-13T00:24:38.332Z,114.67
2023-02-13T00:27:06.762Z,90.53
2023-02-13T00:29:35.543Z,83.13
2023-02-13T00:32:04.718Z,79.93
2023-02-13T00:34:34.062Z,71.47
2023-02-13T00:37:04.850Z,62.60
2023-02-13T00:39:33.387Z,71.33
2023-02-13T00:42:04.795Z,60.23
2023-02-13T00:44:33.339Z,98.10
2023-02-13T00:47:03.090Z,70.80
2023-02-13T00:49:31.577Z,49.57
2023-02-13T00:52:03.393Z,110.87
2023-02-13T00:54:31.792Z,82.63
2023-02-13T00:57:00.156Z,75.77
2023-02-13T00:59:29.982Z,82.90
2023-02-13T01:01:58.549Z,60.53
2023-02-13T01:04:26.913Z,84.80
2023-02-13T01:06:58.305Z,55.27
2023-02-13T01:09:26.865Z,98.40
2023-02-13T01:11:55.457Z,113.67
2023-02-13T01:14:23.985Z,76.80
2023-02-13T01:16:53.871Z,79.60
2023-02-13T01:19:22.687Z,88.30
2023-02-13T01:21:51.575Z,75.13
2023-02-13T01:24:21.076Z,103.67
2023-02-13T01:26:49.445Z,151.83
2023-02-13T01:29:17.886Z,105.57
2023-02-13T01:31:46.405Z,129.70
2023-02-13T01:34:16.320Z,62.53
2023-02-13T01:36:44.784Z,83.20
2023-02-13T01:39:13.843Z,68.57
2023-02-13T01:41:42.311Z,67.60
2023-02-13T01:44:25.552Z,70.73
2023-02-13T01:46:54.064Z,125.50
2023-02-13T01:49:26.658Z,58.63
2023-02-13T01:51:56.462Z,86.57
2023-02-13T01:54:31.086Z,71.70
2023-02-13T01:57:04.216Z,80.20
2023-02-13T01:59:35.127Z,81.00
2023-02-13T02:02:04.470Z,133.07
2023-02-13T02:04:35.997Z,92.13
2023-02-13T02:07:12.790Z,107.17
2023-02-13T02:09:44.041Z,78.67
2023-02-13T02:12:19.944Z,94.73
2023-02-13T02:14:48.397Z,101.80
2023-02-13T02:17:18.853Z,92.53
2023-02-13T02:19:55.601Z,108.93
2023-02-13T02:22:44.855Z,71.57
2023-02-13T02:25:27.533Z,74.40
2023-02-13T02:28:06.657Z,100.97
2023-02-13T02:30:48.792Z,95.47
2023-02-13T02:33:23.871Z,136.60
2023-02-13T02:35:57.497Z,87.13
2023-02-13T02:38:32.241Z,89.33
2023-02-13T02:41:04.410Z,84.70
2023-02-13T02:43:46.895Z,74.73
2023-02-13T02:46:23.401Z,69.33
2023-02-13T02:49:13.513Z,86.47
2023-02-13T02:51:49.558Z,90.37
2023-02-13T02:54:38.414Z,96.43
2023-02-13T02:57:09.874Z,50.20
2023-02-13T02:59:58.648Z,88.53
2023-02-13T03:02:45.026Z,62.87
2023-02-13T03:05:53.640Z,48.67
2023-02-13T03:08:42.384Z,60.17
2023-02-13T03:11:28.889Z,62.07
2023-02-13T03:13:58.144Z,70.63
2023-02-13T03:16:44.894Z,80.23
2023-02-13T03:19:32.759Z,63.87
2023-02-13T03:22:23.625Z,60.60
2023-02-13T03:24:55.147Z,81.17
2023-02-13T03:27:43.459Z,92.40
2023-02-13T03:30:18.292Z,72.23
2023-02-13T03:32:49.439Z,66.93
2023-02-13T03:35:44.492Z,75.93
2023-02-13T03:38:18.384Z,61.10
2023-02-13T03:41:07.653Z,67.47
2023-02-13T03:43:39.150Z,77.60
2023-02-13T03:46:08.244Z,82.00
2023-02-13T03:48:55.547Z,78.23
2023-02-13T03:51:26.715Z,64.77
2023-02-13T03:53:57.875Z,84.33
2023-02-13T03:56:45.081Z,83.33
2023-02-13T03:59:18.601Z,86.33
2023-02-13T04:01:50.491Z,83.13
2023-02-13T04:04:23.756Z,76.17
2023-02-13T04:06:54.059Z,64.57
2023-02-13T04:09:24.171Z,66.37
2023-02-13T04:11:55.327Z,68.53
2023-02-13T04:14:26.734Z,103.20
2023-02-13T04:16:58.063Z,69.30
2023-02-13T04:19:27.553Z,61.93
2023-02-13T04:21:57.939Z,57.53
2023-02-13T04:24:28.117Z,55.53
2023-02-13T04:26:57.485Z,80.30
2023-02-13T04:29:26.459Z,80.13
2023-02-13T04:31:55.129Z,91.30
2023-02-13T04:34:24.068Z,73.33
2023-02-13T04:36:52.505Z,78.73
2023-02-13T04:39:21.090Z,103.10
2023-02-13T04:41:50.846Z,77.57
2023-02-13T04:44:19.288Z,79.73
2023-02-13T04:46:47.687Z,86.57
2023-02-13T04:49:16.249Z,88.10
2023-02-13T04:51:44.678Z,81.17
2023-02-13T04:54:13.624Z,81.40
2023-02-13T04:56:42.006Z,129.17
2023-02-13T04:59:11.802Z,77.53
2023-02-13T05:01:40.379Z,91.77
2023-02-13T05:04:09.099Z,58.03
2023-02-13T05:06:38.113Z,86.73
2023-02-13T05:09:06.616Z,63.30
2023-02-13T05:11:34.970Z,50.90
2023-02-13T05:14:03.351Z,61.03
2023-02-13T05:16:33.154Z,83.50
2023-02-13T05:19:01.772Z,91.60
2023-02-13T05:21:47.788Z,74.47
2023-02-13T05:24:16.741Z,60.97
2023-02-13T05:26:45.853Z,52.60
2023-02-13T05:29:20.258Z,57.70
2023-02-13T05:31:50.457Z,92.27
2023-02-13T05:34:20.325Z,57.47
2023-02-13T05:36:48.771Z,64.37
2023-02-13T05:39:17.558Z,50.63
2023-02-13T05:41:46.325Z,55.83
2023-02-13T05:44:15.049Z,53.63
2023-02-13T05:46:44.953Z,46.47
2023-02-13T05:49:16.060Z,72.07
2023-02-13T05:51:46.472Z,60.13
2023-02-13T05:54:14.979Z,61.67
2023-02-13T05:56:43.369Z,45.70
2023-02-13T05:59:12.233Z,65.03
2023-02-13T06:01:40.886Z,66.83
2023-02-13T06:04:09.687Z,44.77
2023-02-13T06:06:39.649Z,71.63
2023-02-13T06:09:08.430Z,54.40
2023-02-13T06:11:37.018Z,62.77
2023-02-13T06:14:05.454Z,46.53
2023-02-13T06:16:34.680Z,65.33
2023-02-13T06:19:03.132Z,54.77
2023-02-13T06:21:33.428Z,66.43
2023-02-13T06:24:04.292Z,49.70
2023-02-13T06:26:32.705Z,61.67
2023-02-13T06:29:01.260Z,52.77
2023-02-13T06:31:29.892Z,83.63
2023-02-13T06:33:58.632Z,59.50
2023-02-13T06:36:27.007Z,72.13
2023-02-13T06:38:55.659Z,87.80
2023-02-13T06:41:25.494Z,74.63
2023-02-13T06:43:55.555Z,54.80
2023-02-13T06:46:23.969Z,66.63
2023-02-13T06:48:52.910Z,50.50
2023-02-13T06:51:21.929Z,45.67
2023-02-13T06:53:50.661Z,47.40
2023-02-13T06:56:19.102Z,61.23
2023-02-13T06:58:48.984Z,55.87
2023-02-13T07:01:17.567Z,52.70
2023-02-13T07:03:47.827Z,62.53
2023-02-13T07:06:18.890Z,49.10
2023-02-13T07:08:47.363Z,55.00
2023-02-13T07:11:19.662Z,50.60
2023-02-13T07:13:49.639Z,47.93
2023-02-13T07:16:18.668Z,49.10
2023-02-13T07:18:47.202Z,49.57
2023-02-13T07:21:15.910Z,52.53
2023-02-13T07:23:44.734Z,53.23
2023-02-13T07:26:13.230Z,53.80
2023-02-13T07:28:41.739Z,57.63
2023-02-13T07:31:11.910Z,64.07
2023-02-13T07:33:40.364Z,38.53
2023-02-13T07:36:09.279Z,56.60
2023-02-13T07:38:37.730Z,63.13
2023-02-13T07:41:06.332Z,56.57
2023-02-13T07:43:34.941Z,44.57
2023-02-13T07:46:04.438Z,46.93
2023-02-13T07:48:34.454Z,47.50
2023-02-13T07:51:03.681Z,51.80
2023-02-13T07:53:32.110Z,50.63
2023-02-13T07:56:00.555Z,55.80
2023-02-13T07:58:28.965Z,63.10
2023-02-13T08:00:57.537Z,52.53
2023-02-13T08:03:26.087Z,53.97
2023-02-13T08:05:56.068Z,48.57
2023-02-13T08:08:24.659Z,42.27
2023-02-13T08:11:11.060Z,52.17
2023-02-13T08:13:39.518Z,46.30
2023-02-13T08:16:08.192Z,46.77
2023-02-13T08:18:36.676Z,44.13
2023-02-13T08:21:06.537Z,60.67
2023-02-13T08:23:35.180Z,50.43
2023-02-13T08:26:04.056Z,43.77
2023-02-13T08:28:32.606Z,39.03
2023-02-13T08:31:01.109Z,54.53
2023-02-13T08:33:29.598Z,42.80
2023-02-13T08:35:58.515Z,43.13
2023-02-13T08:38:28.700Z,50.53
2023-02-13T08:40:58.731Z,42.37
2023-02-13T08:43:27.661Z,49.27
2023-02-13T08:45:56.429Z,54.07
2023-02-13T08:48:25.235Z,48.57
2023-02-13T08:50:53.682Z,38.50
2023-02-13T08:53:22.176Z,52.33
2023-02-13T08:55:56.193Z,71.57
2023-02-13T08:58:25.323Z,51.80
2023-02-13T09:00:53.745Z,72.63
2023-02-13T09:03:22.206Z,57.17
2023-02-13T09:05:50.740Z,51.17
2023-02-13T09:08:19.222Z,49.00
2023-02-13T09:10:47.598Z,41.23
2023-02-13T09:13:17.402Z,38.50
2023-02-13T09:15:45.846Z,39.37
2023-02-13T09:18:14.387Z,44.60
2023-02-13T09:20:42.845Z,49.93
2023-02-13T09:23:11.340Z,49.30
2023-02-13T09:25:39.770Z,43.20
2023-02-13T09:28:08.570Z,40.50
2023-02-13T09:30:38.719Z,51.77
2023-02-13T09:33:12.288Z,50.40
2023-02-13T09:35:42.308Z,49.70
2023-02-13T09:38:10.947Z,43.27
2023-02-13T09:40:41.365Z,47.17
2023-02-13T09:43:13.840Z,37.90
2023-02-13T09:45:44.266Z,43.80
2023-02-13T09:48:17.766Z,49.23
2023-02-13T09:50:46.159Z,58.50
2023-02-13T09:53:20.883Z,40.53
2023-02-13T09:55:53.767Z,53.57
2023-02-13T09:58:28.124Z,45.00
2023-02-13T10:00:59.926Z,52.30
2023-02-13T10:03:31.073Z,56.17
2023-02-13T10:06:04.864Z,55.23
2023-02-13T10:08:42.222Z,41.97
2023-02-13T10:11:22.417Z,42.57
2023-02-13T10:13:56.608Z,42.37
2023-02-13T10:16:29.220Z,51.73
2023-02-13T10:18:59.563Z,37.50
2023-02-13T10:21:30.367Z,54.90
2023-02-13T10:24:01.445Z,50.10
2023-02-13T10:26:42.769Z,55.57
2023-02-13T10:29:31.567Z,51.27
2023-02-13T10:32:02.840Z,56.37
2023-02-13T10:34:34.673Z,44.87
2023-02-13T10:37:03.131Z,55.27
2023-02-13T10:39:34.949Z,57.33
2023-02-13T10:42:07.595Z,51.70
2023-02-13T10:44:40.503Z,47.03
2023-02-13T10:47:15.428Z,49.20
2023-02-13T10:49:58.749Z,46.60
2023-02-13T10:52:31.468Z,51.93
2023-02-13T10:55:07.487Z,42.97
2023-02-13T10:57:42.880Z,41.83
2023-02-13T11:00:13.686Z,55.00
2023-02-13T11:02:43.556Z,47.60
2023-02-13T11:05:16.690Z,54.73
2023-02-13T11:07:46.844Z,47.97
2023-02-13T11:10:17.899Z,42.43
2023-02-13T11:12:46.419Z,43.53
2023-02-13T11:15:26.812Z,39.53
2023-02-13T11:17:57.407Z,45.10
2023-02-13T11:20:29.493Z,54.90
2023-02-13T11:22:58.987Z,39.77
2023-02-13T11:25:30.074Z,47.50
2023-02-13T11:28:08.737Z,41.80
2023-02-13T11:30:38.146Z,48.90
2023-02-13T11:33:08.488Z,47.07
2023-02-13T11:35:38.136Z,48.87
2023-02-13T11:38:14.593Z,45.07
2023-02-13T11:40:44.855Z,40.70
2023-02-13T11:43:19.426Z,47.73
2023-02-13T11:45:48.244Z,42.37
2023-02-13T11:48:24.164Z,39.67
2023-02-13T11:50:57.116Z,36.67
2023-02-13T11:53:27.646Z,39.10
2023-02-13T11:56:03.876Z,41.10
2023-02-13T11:58:32.614Z,38.03
2023-02-13T12:01:10.771Z,33.00
2023-02-13T12:03:43.162Z,32.10
2023-02-13T12:06:14.226Z,35.20
2023-02-13T12:08:43.841Z,39.20
2023-02-13T12:11:19.046Z,36.10
2023-02-13T12:13:47.577Z,44.90
2023-02-13T12:16:20.296Z,49.53
2023-02-13T12:18:51.239Z,48.77
2023-02-13T12:21:28.994Z,39.83
2023-02-13T12:24:00.562Z,36.60
2023-02-13T12:26:31.587Z,44.97
2023-02-13T12:29:05.770Z,49.40
2023-02-13T12:31:42.183Z,51.30
2023-02-13T12:34:22.586Z,47.13
2023-02-13T12:36:55.578Z,50.83
2023-02-13T12:39:28.881Z,54.80
2023-02-13T12:42:06.737Z,56.07
2023-02-13T12:44:49.805Z,47.17
2023-02-13T12:47:20.282Z,48.53
2023-02-13T12:50:09.262Z,48.37
2023-02-13T12:52:55.136Z,50.93
2023-02-13T12:55:36.543Z,50.80
2023-02-13T12:58:14.660Z,57.73
2023-02-13T13:00:48.217Z,42.87
2023-02-13T13:03:25.731Z,45.40
2023-02-13T13:06:11.331Z,43.63
2023-02-13T13:08:46.660Z,46.40
2023-02-13T13:11:24.909Z,47.37
2023-02-13T13:14:00.771Z,45.73
2023-02-13T13:16:32.197Z,50.97
2023-02-13T13:19:05.854Z,45.53
2023-02-13T13:21:41.411Z,50.23
2023-02-13T13:24:16.346Z,44.80
2023-02-13T13:26:46.371Z,55.53
2023-02-13T13:29:17.361Z,57.43
2023-02-13T13:31:47.909Z,50.07
2023-02-13T13:34:19.413Z,52.53
2023-02-13T13:36:52.574Z,52.30
2023-02-13T13:39:28.602Z,49.20
2023-02-13T13:42:02.655Z,47.03
2023-02-13T13:44:42.387Z,48.83
2023-02-13T13:47:18.676Z,57.57
2023-02-13T13:49:52.735Z,54.40
2023-02-13T13:52:29.958Z,47.90
2023-02-13T13:55:00.661Z,55.83
2023-02-13T13:57:29.758Z,50.77
2023-02-13T14:00:14.477Z,60.90
2023-02-13T14:02:46.707Z,49.50
2023-02-13T14:05:26.314Z,53.90
2023-02-13T14:07:57.689Z,49.20
2023-02-13T14:10:41.332Z,44.80
2023-02-13T14:13:09.883Z,50.63
2023-02-13T14:15:59.491Z,50.60
2023-02-13T14:18:28.735Z,51.47
2023-02-13T14:21:00.925Z,53.60
2023-02-13T14:23:37.617Z,54.87
2023-02-13T14:26:13.580Z,57.40
2023-02-13T14:28:42.766Z,61.23
2023-02-13T14:31:22.417Z,54.50
2023-02-13T14:33:56.882Z,43.90
2023-02-13T14:36:32.162Z,50.67
2023-02-13T14:39:04.676Z,56.50
2023-02-13T14:41:43.417Z,52.37
2023-02-13T14:44:17.745Z,50.30
2023-02-13T14:46:49.026Z,67.57
2023-02-13T14:49:19.103Z,46.50
2023-02-13T14:51:48.800Z,55.77
2023-02-13T14:54:23.548Z,49.00
2023-02-13T14:56:54.370Z,56.20
2023-02-13T14:59:26.059Z,55.00
2023-02-13T15:01:56.038Z,56.50
2023-02-13T15:04:28.053Z,65.13
2023-02-13T15:06:57.597Z,58.90
2023-02-13T15:09:30.434Z,61.03
2023-02-13T15:11:58.812Z,57.03
2023-02-13T15:14:32.697Z,50.87
2023-02-13T15:17:07.350Z,56.20
2023-02-13T15:19:37.440Z,57.97
2023-02-13T15:22:07.256Z,54.83
2023-02-13T15:24:39.627Z,58.37
2023-02-13T15:27:09.372Z,61.77
2023-02-13T15:29:49.176Z,59.17
2023-02-13T15:32:21.555Z,76.87
2023-02-13T15:34:50.447Z,72.30
2023-02-13T15:37:23.100Z,63.90
2023-02-13T15:39:52.894Z,62.87
2023-02-13T15:42:21.330Z,62.27
2023-02-13T15:44:51.063Z,65.07
2023-02-13T15:47:20.702Z,59.40
2023-02-13T15:49:50.421Z,57.60
2023-02-13T15:52:22.256Z,47.63
2023-02-13T15:54:54.805Z,55.07
2023-02-13T15:57:24.350Z,64.93
2023-02-13T15:59:53.798Z,75.77
2023-02-13T16:02:23.050Z,57.63
2023-02-13T16:04:53.170Z,55.80
2023-02-13T16:07:21.756Z,52.57
2023-02-13T16:09:50.287Z,59.37
2023-02-13T16:12:22.726Z,61.50
2023-02-13T16:14:53.836Z,70.97
2023-02-13T16:17:28.501Z,59.10
2023-02-13T16:19:59.302Z,60.43
2023-02-13T16:22:32.356Z,62.97
2023-02-13T16:25:06.528Z,60.00
2023-02-13T16:27:37.082Z,66.00
2023-02-13T16:30:06.741Z,66.70
2023-02-13T16:32:38.885Z,59.93
2023-02-13T16:35:30.078Z,79.37
2023-02-13T16:38:00.473Z,81.20
2023-02-13T16:40:38.418Z,87.60
2023-02-13T16:43:25.890Z,68.10
2023-02-13T16:45:55.724Z,69.27
2023-02-13T16:48:24.352Z,76.30
2023-02-13T16:50:57.259Z,79.93
2023-02-13T16:53:26.122Z,76.13
2023-02-13T16:55:58.892Z,78.07
2023-02-13T16:58:27.460Z,76.77
2023-02-13T17:00:57.764Z,88.13
2023-02-13T17:03:26.579Z,80.70
2023-02-13T17:05:55.321Z,73.60
2023-02-13T17:08:23.741Z,73.43
2023-02-13T17:11:03.186Z,82.00
2023-02-13T17:13:31.694Z,73.23
2023-02-13T17:16:01.565Z,80.50
2023-02-13T17:18:30.148Z,76.73
2023-02-13T17:20:58.826Z,86.13
2023-02-13T17:23:27.904Z,70.00
2023-02-13T17:25:56.847Z,116.50
2023-02-13T17:28:27.124Z,109.83
2023-02-13T17:30:57.458Z,87.13
2023-02-13T17:33:28.404Z,89.03
2023-02-13T17:35:56.845Z,105.50
2023-02-13T17:38:25.473Z,66.37
2023-02-13T17:40:53.908Z,75.70
2023-02-13T17:43:22.855Z,85.40
2023-02-13T17:45:51.324Z,70.77
2023-02-13T17:48:19.917Z,76.00
2023-02-13T17:50:50.514Z,86.33
2023-02-13T17:53:22.946Z,96.90
2023-02-13T17:55:51.761Z,105.20
2023-02-13T17:58:20.244Z,101.47
2023-02-13T18:00:48.776Z,94.90
2023-02-13T18:03:17.351Z,118.20
2023-02-13T18:05:48.536Z,104.10
2023-02-13T18:08:19.491Z,106.17
2023-02-13T18:10:48.004Z,91.63
2023-02-13T18:13:17.736Z,93.67
2023-02-13T18:15:46.696Z,77.30
2023-02-13T18:18:16.894Z,106.73
2023-02-13T18:20:46.113Z,95.23
2023-02-13T18:23:15.080Z,81.57
2023-02-13T18:25:45.203Z,147.97
2023-02-13T18:28:13.651Z,123.23
2023-02-13T18:30:43.539Z,91.30
2023-02-13T18:33:12.079Z,74.53
2023-02-13T18:35:40.527Z,77.37
2023-02-13T18:38:08.972Z,76.80
2023-02-13T18:40:38.112Z,73.90
2023-02-13T18:43:08.158Z,110.13
2023-02-13T18:45:38.785Z,109.37
2023-02-13T18:48:09.317Z,98.30
2023-02-13T18:50:40.215Z,112.43
2023-02-13T18:53:08.713Z,96.43
2023-02-13T18:55:37.166Z,97.37
2023-02-13T18:58:05.796Z,105.93
2023-02-13T19:00:35.759Z,118.10
2023-02-13T19:03:04.345Z,86.27
2023-02-13T19:05:32.824Z,90.00
2023-02-13T19:08:01.547Z,115.80
2023-02-13T19:10:30.025Z,93.30
2023-02-13T19:12:59.354Z,77.00
2023-02-13T19:15:27.811Z,84.57
2023-02-13T19:17:58.080Z,117.93
2023-02-13T19:20:26.562Z,117.23
2023-02-13T19:22:55.177Z,118.53
2023-02-13T19:25:23.676Z,110.33
2023-02-13T19:27:52.208Z,102.37
2023-02-13T19:30:20.804Z,127.40
2023-02-13T19:32:49.240Z,69.33
2023-02-13T19:35:19.482Z,118.37
2023-02-13T19:37:48.022Z,118.10
2023-02-13T19:40:16.708Z,92.43
2023-02-13T19:42:45.217Z,105.23
2023-02-13T19:45:14.178Z,115.20
2023-02-13T19:47:42.773Z,111.97
2023-02-13T19:50:11.939Z,119.10
2023-02-13T19:52:42.426Z,125.40
2023-02-13T19:55:11.697Z,127.97
2023-02-13T19:57:40.157Z,152.93
2023-02-13T20:00:10.188Z,142.97
2023-02-13T20:02:42.219Z,136.47
2023-02-13T20:05:11.274Z,186.03
2023-02-13T20:07:39.744Z,138.27
2023-02-13T20:10:11.560Z,160.00
2023-02-13T20:12:40.557Z,185.33
2023-02-13T20:15:09.832Z,120.47
2023-02-13T20:17:38.887Z,100.93
2023-02-13T20:20:08.423Z,151.07
2023-02-13T20:22:36.970Z,125.40
2023-02-13T20:25:05.734Z,188.13
2023-02-13T20:30:07.590Z,111.33
2023-02-13T20:32:36.384Z,118.63
2023-02-13T20:35:05.322Z,267.07
2023-02-13T20:37:36.727Z,245.23
2023-02-13T20:40:10.336Z,347.30
2023-02-13T20:42:41.380Z,222.07
2023-02-13T20:45:10.384Z,200.93
2023-02-13T20:47:42.857Z,100.40
2023-02-13T20:50:12.099Z,248.83
2023-02-13T20:52:41.392Z,321.60
2023-02-13T20:55:10.272Z,169.30
2023-02-13T20:57:40.476Z,334.53
2023-02-13T21:00:12.178Z,141.90
2023-02-13T21:02:41.230Z,211.27
2023-02-13T21:05:09.878Z,192.07
2023-02-13T21:07:39.354Z,226.73
2023-02-13T21:10:08.820Z,294.23
2023-02-13T21:12:37.292Z,418.37
2023-02-13T21:15:07.267Z,173.30
2023-02-13T21:17:38.089Z,264.93
2023-02-13T21:20:07.226Z,357.53
2023-02-13T21:22:35.665Z,251.23
2023-02-13T21:25:07.036Z,329.10
2023-02-13T21:27:35.961Z,304.97
2023-02-13T21:30:07.639Z,142.07
2023-02-13T21:32:36.150Z,419.70
2023-02-13T21:35:05.220Z,421.87
2023-02-13T21:37:34.114Z,237.17
2023-02-13T21:40:02.478Z,250.83
2023-02-13T21:42:31.168Z,313.33
2023-02-13T21:45:00.219Z,180.13
2023-02-13T21:47:30.126Z,190.87
2023-02-13T21:49:58.925Z,378.03
2023-02-13T21:52:27.502Z,118.13
2023-02-13T21:54:55.928Z,248.63
2023-02-13T21:57:24.463Z,143.73
2023-02-13T21:59:52.934Z,168.43
2023-02-13T22:02:21.427Z,274.57
2023-02-13T22:04:51.470Z,125.30
2023-02-13T22:07:20.813Z,114.07
2023-02-13T22:09:51.984Z,336.33
2023-02-13T22:12:20.711Z,127.27
2023-02-13T22:14:51.935Z,222.80
2023-02-13T22:17:22.260Z,160.73
2023-02-13T22:19:52.220Z,201.00
2023-02-13T22:22:21.383Z,155.80
2023-02-13T22:24:49.773Z,218.90
2023-02-13T22:27:18.683Z,195.80
2023-02-13T22:29:47.308Z,89.40
2023-02-13T22:32:16.226Z,214.07
2023-02-13T22:34:45.228Z,177.60
2023-02-13T22:37:16.113Z,192.47
2023-02-13T22:39:45.645Z,265.17
2023-02-13T22:42:14.264Z,199.80
2023-02-13T22:44:42.833Z,167.93
2023-02-13T22:47:11.812Z,98.83
2023-02-13T22:49:40.226Z,91.13
2023-02-13T22:52:10.868Z,120.23
2023-02-13T22:54:40.574Z,101.37
2023-02-13T22:57:09.228Z,90.73
2023-02-13T22:59:40.062Z,119.93
2023-02-13T23:02:08.838Z,124.17
2023-02-13T23:04:37.447Z,260.63
2023-02-13T23:07:06.288Z,150.40
2023-02-13T23:09:34.674Z,394.87
2023-02-13T23:12:22.232Z,210.60
2023-02-13T23:14:50.966Z,205.73
2023-02-13T23:17:37.595Z,184.27
2023-02-13T23:20:06.439Z,187.23
2023-02-13T23:22:35.769Z,245.67
2023-02-13T23:25:05.833Z,217.60
2023-02-13T23:27:35.929Z,194.50
2023-02-13T23:30:05.133Z,321.13
2023-02-13T23:32:33.958Z,286.53
2023-02-13T23:35:02.582Z,293.40
2023-02-13T23:37:31.193Z,296.67
2023-02-13T23:39:59.629Z,196.53
2023-02-13T23:42:28.122Z,219.60
2023-02-13T23:44:57.929Z,208.60
2023-02-13T23:47:26.393Z,305.60
2023-02-13T23:49:54.827Z,300.90
2023-02-13T23:52:24.339Z,274.77
2023-02-13T23:54:52.753Z,327.27
2023-02-13T23:57:21.245Z,230.57
2023-02-13T23:59:49.658Z,391.10
